Time;durP1;ratioP1;P1;durP2;ratioP2;P2;SDS_P1;SDS_P2;PMS_P1;PMS_P2;Temp;Humidity;BMP_temperature;BMP_pressure;BME280_temperature;BME280_humidity;BME280_pressure;Samples;Min_cycle;Max_cycle;Signal;HPM_P1;HPM_P2
2021/09/28 00:01:20;;;;;;;1.87;0.90;;;17.10;99.90;;;;;;5051077;28;20648;-62
2021/09/28 00:03:47;;;;;;;3.20;0.60;;;16.70;99.90;;;;;;5051168;28;20243;-62
2021/09/28 00:06:15;;;;;;;1.70;0.63;;;16.40;99.90;;;;;;5051102;28;20212;-62
2021/09/28 00:08:42;;;;;;;2.57;0.80;;;16.10;99.90;;;;;;5050560;28;20225;-62
2021/09/28 00:11:09;;;;;;;2.30;0.90;;;15.90;99.90;;;;;;5051776;28;20245;-62
2021/09/28 00:13:36;;;;;;;2.20;0.70;;;15.70;99.90;;;;;;5054769;28;20232;-62
2021/09/28 00:16:03;;;;;;;2.37;0.80;;;15.70;99.90;;;;;;5054256;28;20241;-63
2021/09/28 00:18:30;;;;;;;2.63;0.63;;;15.60;99.90;;;;;;5054536;28;20205;-62
2021/09/28 00:20:57;;;;;;;2.47;0.70;;;15.70;99.90;;;;;;5054761;28;20669;-62
2021/09/28 00:23:25;;;;;;;1.37;0.73;;;15.70;99.90;;;;;;5055002;28;20201;-62
2021/09/28 00:25:51;;;;;;;1.80;0.70;;;15.90;99.90;;;;;;5055078;28;20229;-62
2021/09/28 00:28:18;;;;;;;2.73;0.70;;;16.10;99.90;;;;;;5054505;28;20704;-62
2021/09/28 00:30:45;;;;;;;2.67;0.90;;;16.10;99.90;;;;;;5054714;28;20217;-64
2021/09/28 00:33:13;;;;;;;1.53;0.73;;;16.20;99.90;;;;;;5054321;28;20210;-62
2021/09/28 00:35:40;;;;;;;1.60;0.80;;;16.30;99.90;;;;;;5054069;28;20229;-62
2021/09/28 00:38:06;;;;;;;2.33;0.87;;;16.30;99.90;;;;;;5053976;28;20202;-62
2021/09/28 00:40:34;;;;;;;3.70;0.70;;;16.40;99.90;;;;;;5054388;28;20214;-62
2021/09/28 00:43:01;;;;;;;4.23;1.00;;;16.50;99.90;;;;;;5054204;28;20284;-62
2021/09/28 00:45:28;;;;;;;1.53;0.77;;;16.50;99.90;;;;;;5053952;28;20228;-62
2021/09/28 00:47:54;;;;;;;1.63;0.80;;;16.60;99.90;;;;;;5054128;28;20209;-62
2021/09/28 00:50:21;;;;;;;1.87;0.80;;;16.70;99.90;;;;;;5053975;28;20206;-63
2021/09/28 00:52:48;;;;;;;2.20;0.70;;;16.60;99.90;;;;;;5053759;28;20206;-62
2021/09/28 00:55:16;;;;;;;2.17;1.00;;;16.50;99.90;;;;;;5053654;28;20233;-63
2021/09/28 00:57:45;;;;;;;4.10;0.90;;;16.50;99.90;;;;;;5053634;28;20704;-62
2021/09/28 01:00:13;;;;;;;2.03;1.00;;;16.50;99.90;;;;;;5054079;28;20205;-62
2021/09/28 01:02:42;;;;;;;2.57;1.17;;;16.30;99.90;;;;;;5054355;28;20619;-63
2021/09/28 01:05:09;;;;;;;3.73;1.00;;;16.10;99.90;;;;;;5053682;28;20233;-61
2021/09/28 01:07:36;;;;;;;1.73;0.87;;;16.20;99.90;;;;;;5053889;28;20205;-62
2021/09/28 01:10:03;;;;;;;1.80;1.00;;;16.20;99.90;;;;;;5053697;28;20225;-62
2021/09/28 01:12:30;;;;;;;1.50;1.13;;;16.20;99.90;;;;;;5053742;28;20270;-62
2021/09/28 01:14:58;;;;;;;1.53;0.77;;;16.30;99.90;;;;;;5053444;28;20639;-62
2021/09/28 01:17:25;;;;;;;1.63;1.00;;;16.30;99.90;;;;;;5053737;28;20201;-62
2021/09/28 01:19:51;;;;;;;2.17;0.97;;;16.30;99.90;;;;;;5053192;28;20225;-62
2021/09/28 01:22:19;;;;;;;2.13;0.77;;;16.40;99.90;;;;;;5052510;28;20221;-62
2021/09/28 01:24:48;;;;;;;2.00;0.77;;;16.40;99.90;;;;;;5052999;28;20230;-63
2021/09/28 01:27:16;;;;;;;2.63;0.90;;;16.40;99.90;;;;;;5053430;28;20210;-62
2021/09/28 01:29:43;;;;;;;2.47;0.90;;;16.40;99.90;;;;;;5053425;28;20225;-62
2021/09/28 01:32:10;;;;;;;3.07;1.07;;;16.40;99.90;;;;;;5053255;28;20234;-62
2021/09/28 01:34:37;;;;;;;3.43;1.00;;;16.30;99.90;;;;;;5053098;28;20233;-62
2021/09/28 01:37:04;;;;;;;3.20;1.20;;;16.30;99.90;;;;;;5053288;28;20612;-62
2021/09/28 01:39:32;;;;;;;3.43;1.13;;;16.30;99.90;;;;;;5052827;28;20292;-62
2021/09/28 01:41:59;;;;;;;3.07;1.00;;;16.30;99.90;;;;;;5052981;28;20212;-62
2021/09/28 01:44:27;;;;;;;2.77;1.10;;;16.30;99.90;;;;;;5052572;28;20230;-62
2021/09/28 01:46:54;;;;;;;2.33;1.10;;;16.20;99.90;;;;;;5052625;28;20241;-62
2021/09/28 01:49:21;;;;;;;4.10;0.90;;;16.20;99.90;;;;;;5053044;28;20232;-62
2021/09/28 01:51:49;;;;;;;1.83;0.80;;;16.10;99.90;;;;;;5053182;28;20212;-62
2021/09/28 01:54:15;;;;;;;4.03;1.00;;;16.00;99.90;;;;;;5052868;28;20221;-62
2021/09/28 01:56:44;;;;;;;5.13;1.00;;;16.00;99.90;;;;;;5052713;28;20209;-62
2021/09/28 01:59:11;;;;;;;1.83;0.93;;;16.00;99.90;;;;;;5052325;28;20202;-62
2021/09/28 02:01:38;;;;;;;4.60;1.17;;;16.00;99.90;;;;;;5052410;28;20689;-62
2021/09/28 02:04:05;;;;;;;2.70;0.97;;;16.00;99.90;;;;;;5052403;28;20229;-62
2021/09/28 02:06:39;;;;;;;1.80;0.80;;;16.00;99.90;;;;;;5052494;28;20213;-62
2021/09/28 02:09:06;;;;;;;4.73;1.10;;;15.90;99.90;;;;;;5052301;28;20225;-63
2021/09/28 02:11:33;;;;;;;6.20;1.10;;;15.90;99.90;;;;;;5052329;28;20208;-63
2021/09/28 02:14:02;;;;;;;2.57;1.07;;;15.90;99.90;;;;;;5051868;28;20229;-62
2021/09/28 02:16:29;;;;;;;2.57;0.93;;;15.80;99.90;;;;;;5052467;28;20210;-63
2021/09/28 02:18:56;;;;;;;2.33;1.03;;;15.80;99.90;;;;;;5052233;28;20212;-62
2021/09/28 02:21:23;;;;;;;3.27;0.80;;;15.80;99.90;;;;;;5052348;28;20208;-62
2021/09/28 02:23:49;;;;;;;3.43;1.00;;;15.80;99.90;;;;;;5052101;28;20205;-63
2021/09/28 02:26:16;;;;;;;3.77;1.03;;;15.80;99.90;;;;;;5052077;28;20213;-63
2021/09/28 02:28:43;;;;;;;3.93;0.73;;;15.70;99.90;;;;;;5051688;28;20678;-62
2021/09/28 02:31:11;;;;;;;3.10;1.10;;;15.60;99.90;;;;;;5052361;28;20213;-62
2021/09/28 02:33:38;;;;;;;2.43;0.77;;;15.60;99.90;;;;;;5051666;28;20206;-62
2021/09/28 02:36:05;;;;;;;4.07;1.10;;;15.50;99.90;;;;;;5052194;28;20214;-62
2021/09/28 02:38:32;;;;;;;3.20;1.00;;;15.40;99.90;;;;;;5051777;28;20209;-62
2021/09/28 02:40:58;;;;;;;4.57;0.87;;;15.40;99.90;;;;;;5051684;28;20216;-63
2021/09/28 02:43:25;;;;;;;4.07;1.07;;;15.30;99.90;;;;;;5051442;28;20422;-62
2021/09/28 02:45:52;;;;;;;4.63;1.27;;;15.30;99.90;;;;;;5052083;28;20366;-63
2021/09/28 02:48:19;;;;;;;2.83;0.70;;;15.30;99.90;;;;;;5051831;28;20217;-62
2021/09/28 02:50:47;;;;;;;4.40;0.97;;;15.30;99.90;;;;;;5051592;28;20229;-63
2021/09/28 02:53:13;;;;;;;2.77;0.90;;;15.30;99.90;;;;;;5051821;28;20210;-63
2021/09/28 02:55:40;;;;;;;4.97;1.37;;;15.30;99.90;;;;;;5051768;28;20600;-62
2021/09/28 02:58:07;;;;;;;7.73;1.87;;;15.40;99.90;;;;;;5052095;28;20210;-62
2021/09/28 03:00:34;;;;;;;3.33;1.13;;;15.50;99.90;;;;;;5051750;28;20700;-63
2021/09/28 03:03:00;;;;;;;3.83;1.20;;;15.50;99.90;;;;;;5051709;28;20212;-63
2021/09/28 03:05:29;;;;;;;4.50;2.37;;;15.50;99.90;;;;;;5051491;28;20233;-63
2021/09/28 03:07:55;;;;;;;5.67;2.63;;;15.50;99.90;;;;;;5051531;28;20209;-63
2021/09/28 03:10:22;;;;;;;5.90;2.13;;;15.60;99.90;;;;;;5051473;28;20228;-63
2021/09/28 03:12:49;;;;;;;4.50;1.40;;;15.60;99.90;;;;;;5051457;28;20678;-63
2021/09/28 03:15:15;;;;;;;2.73;1.30;;;15.60;99.90;;;;;;5051411;28;20244;-63
2021/09/28 03:17:42;;;;;;;4.03;1.60;;;15.70;99.90;;;;;;5051992;28;20213;-63
2021/09/28 03:20:10;;;;;;;4.57;1.30;;;15.60;99.90;;;;;;5052297;28;20201;-63
2021/09/28 03:22:38;;;;;;;3.40;1.40;;;15.70;99.90;;;;;;5053450;28;20216;-63
2021/09/28 03:25:05;;;;;;;3.50;1.77;;;15.70;99.90;;;;;;5052621;28;20230;-63
2021/09/28 03:27:32;;;;;;;3.90;1.40;;;15.70;99.90;;;;;;5053250;28;20551;-63
2021/09/28 03:29:59;;;;;;;4.27;1.90;;;15.70;99.90;;;;;;5052248;28;20229;-63
2021/09/28 03:32:26;;;;;;;31.67;19.43;;;15.70;99.90;;;;;;5052006;28;20209;-63
2021/09/28 03:34:52;;;;;;;3.87;1.77;;;15.70;99.90;;;;;;5051220;28;20229;-63
2021/09/28 03:37:19;;;;;;;3.17;1.17;;;15.60;99.90;;;;;;5051576;28;20209;-63
2021/09/28 03:39:47;;;;;;;3.80;1.53;;;15.60;99.90;;;;;;5052137;28;20255;-63
2021/09/28 03:42:14;;;;;;;2.33;1.30;;;15.50;99.90;;;;;;5051748;28;20209;-63
2021/09/28 03:44:41;;;;;;;5.13;2.17;;;15.50;99.90;;;;;;5051107;28;20226;-63
2021/09/28 03:47:07;;;;;;;4.87;2.33;;;15.40;99.90;;;;;;5053752;28;20205;-64
2021/09/28 03:49:34;;;;;;;9.20;2.97;;;15.40;99.90;;;;;;5055139;28;20229;-62
2021/09/28 03:52:01;;;;;;;6.60;3.50;;;15.40;99.90;;;;;;5055081;28;20259;-63
2021/09/28 03:54:27;;;;;;;5.67;1.87;;;15.40;99.90;;;;;;5054954;28;20287;-63
2021/09/28 03:56:56;;;;;;;6.93;1.80;;;15.30;99.90;;;;;;5055222;28;20209;-63
2021/09/28 03:59:23;;;;;;;5.37;2.07;;;15.20;99.90;;;;;;5054850;28;20202;-63
2021/09/28 04:01:49;;;;;;;8.37;5.67;;;15.30;99.90;;;;;;5054906;28;20209;-63
2021/09/28 04:04:16;;;;;;;4.13;1.70;;;15.20;99.90;;;;;;5054584;28;20232;-63
2021/09/28 04:06:43;;;;;;;4.23;1.93;;;15.20;99.90;;;;;;5054984;28;20205;-63
2021/09/28 04:09:09;;;;;;;5.83;2.00;;;15.10;99.90;;;;;;5054935;28;20263;-64
2021/09/28 04:11:36;;;;;;;4.07;1.90;;;15.10;99.90;;;;;;5054715;28;20680;-63
2021/09/28 04:16:37;;;;;;;4.17;2.03;;;15.10;99.90;;;;;;5053058;28;20218;-64
2021/09/28 04:19:04;;;;;;;5.30;2.30;;;15.10;99.90;;;;;;5053999;28;20236;-64
2021/09/28 04:21:32;;;;;;;5.93;2.93;;;15.20;99.90;;;;;;5054229;28;20213;-64
2021/09/28 04:23:59;;;;;;;4.80;2.80;;;15.10;99.90;;;;;;5053972;28;20212;-64
2021/09/28 04:26:25;;;;;;;5.40;2.70;;;15.10;99.90;;;;;;5034139;28;20276;-64
2021/09/28 04:28:52;;;;;;;4.40;2.73;;;15.10;99.90;;;;;;5033978;28;20210;-64
2021/09/28 04:31:19;;;;;;;9.33;3.90;;;15.00;99.90;;;;;;5033918;28;20230;-64
2021/09/28 04:33:47;;;;;;;6.57;3.30;;;14.90;99.90;;;;;;5033889;28;20205;-64
2021/09/28 04:36:13;;;;;;;8.73;4.73;;;15.00;99.90;;;;;;5033890;28;20298;-64
2021/09/28 04:38:40;;;;;;;11.70;3.93;;;15.00;99.90;;;;;;5033526;28;20565;-64
2021/09/28 04:41:07;;;;;;;8.47;4.47;;;15.10;99.90;;;;;;5033750;28;20209;-64
2021/09/28 04:43:34;;;;;;;5.13;4.13;;;15.20;99.90;;;;;;5033359;28;20206;-64
2021/09/28 04:46:01;;;;;;;6.37;4.23;;;15.10;99.90;;;;;;5033272;28;20776;-64
2021/09/28 04:48:28;;;;;;;8.53;4.77;;;15.10;99.90;;;;;;5033717;28;20297;-64
2021/09/28 04:50:56;;;;;;;8.70;4.13;;;15.20;99.90;;;;;;5033606;28;20246;-64
2021/09/28 04:53:24;;;;;;;6.50;3.90;;;15.20;99.90;;;;;;5033601;28;20213;-64
2021/09/28 04:55:54;;;;;;;7.30;4.30;;;15.30;99.90;;;;;;5033592;28;20538;-64
2021/09/28 04:58:21;;;;;;;11.13;4.43;;;15.30;99.90;;;;;;5032779;28;20653;-64
2021/09/28 05:00:48;;;;;;;7.83;4.10;;;15.20;99.90;;;;;;5033518;28;20198;-64
2021/09/28 05:03:15;;;;;;;6.70;4.20;;;15.30;99.90;;;;;;5033464;28;20206;-64
2021/09/28 05:05:41;;;;;;;7.33;3.70;;;15.30;99.90;;;;;;5033022;28;20303;-64
2021/09/28 05:08:10;;;;;;;11.40;5.53;;;15.40;99.90;;;;;;5033178;28;20210;-64
2021/09/28 05:10:37;;;;;;;8.77;4.57;;;15.40;99.90;;;;;;5032967;28;20226;-65
2021/09/28 05:13:04;;;;;;;6.63;4.33;;;15.50;99.90;;;;;;5032857;28;20234;-63
2021/09/28 05:15:31;;;;;;;5.47;4.10;;;15.50;99.90;;;;;;5033275;28;20313;-63
2021/09/28 05:17:58;;;;;;;7.53;4.80;;;15.40;99.90;;;;;;5033105;28;20637;-63
2021/09/28 05:20:25;;;;;;;6.03;4.70;;;15.40;99.90;;;;;;5033032;28;20629;-63
2021/09/28 05:22:52;;;;;;;7.20;4.90;;;15.50;99.90;;;;;;5033319;28;20264;-63
2021/09/28 05:25:20;;;;;;;8.83;4.87;;;15.60;99.90;;;;;;5032972;28;20226;-63
2021/09/28 05:27:46;;;;;;;6.03;4.70;;;15.60;99.90;;;;;;5032646;28;20217;-63
2021/09/28 05:30:13;;;;;;;7.77;4.47;;;15.60;99.90;;;;;;5032929;28;20237;-63
2021/09/28 05:32:40;;;;;;;7.53;4.97;;;15.70;99.90;;;;;;5032887;28;20207;-63
2021/09/28 05:35:07;;;;;;;8.13;5.10;;;15.70;99.90;;;;;;5032857;28;20272;-64
2021/09/28 05:37:34;;;;;;;9.37;4.97;;;15.60;99.90;;;;;;5032819;28;20689;-65
2021/09/28 05:40:01;;;;;;;11.37;5.83;;;15.60;99.90;;;;;;5032767;28;20206;-64
2021/09/28 05:42:29;;;;;;;11.30;4.73;;;15.60;99.90;;;;;;5032429;28;20217;-64
2021/09/28 05:44:55;;;;;;;11.00;4.80;;;15.60;99.90;;;;;;5032953;28;20234;-64
2021/09/28 05:47:22;;;;;;;8.90;4.60;;;15.70;99.90;;;;;;5032872;28;20242;-64
2021/09/28 05:49:49;;;;;;;7.37;5.00;;;15.60;99.90;;;;;;5032489;28;20229;-67
2021/09/28 05:52:17;;;;;;;7.97;4.90;;;15.70;99.90;;;;;;5033844;28;20205;-65
2021/09/28 05:54:48;;;;;;;11.50;5.77;;;15.70;99.90;;;;;;5033119;28;20233;-66
2021/09/28 05:57:15;;;;;;;7.60;5.27;;;15.80;99.90;;;;;;5032839;28;20210;-64
2021/09/28 05:59:44;;;;;;;10.00;5.50;;;15.90;99.90;;;;;;5032335;28;20569;-64
2021/09/28 06:02:11;;;;;;;8.47;5.20;;;15.90;99.90;;;;;;5032009;28;20202;-64
2021/09/28 06:04:38;;;;;;;5.97;5.20;;;15.90;99.90;;;;;;5032145;28;20280;-63
2021/09/28 06:07:05;;;;;;;6.37;4.87;;;15.90;99.90;;;;;;5031989;28;20206;-63
2021/09/28 06:09:35;;;;;;;6.57;4.60;;;15.80;99.90;;;;;;5030952;28;20229;-63
2021/09/28 06:12:02;;;;;;;8.53;4.50;;;15.90;99.90;;;;;;5032740;28;20242;-63
2021/09/28 06:14:29;;;;;;;7.97;4.53;;;16.00;99.90;;;;;;5031816;28;20234;-63
2021/09/28 06:16:58;;;;;;;12.97;4.53;;;16.10;99.90;;;;;;5031123;28;20210;-64
2021/09/28 06:19:24;;;;;;;5.97;4.07;;;16.10;99.90;;;;;;5031025;28;20296;-64
2021/09/28 06:21:51;;;;;;;6.23;3.90;;;16.10;99.90;;;;;;5030988;28;20606;-66
2021/09/28 06:24:18;;;;;;;5.50;3.97;;;16.10;99.90;;;;;;5031113;28;20210;-63
2021/09/28 06:26:45;;;;;;;6.00;4.10;;;16.10;99.90;;;;;;5030961;28;20743;-63
2021/09/28 06:29:12;;;;;;;6.77;4.23;;;16.20;99.90;;;;;;5030819;28;20207;-64
2021/09/28 06:31:39;;;;;;;6.37;3.90;;;16.50;99.90;;;;;;5030753;28;20242;-64
2021/09/28 06:34:07;;;;;;;7.90;4.03;;;16.70;99.90;;;;;;5030619;28;20732;-64
2021/09/28 06:36:33;;;;;;;6.90;4.57;;;16.90;99.90;;;;;;5030692;28;20704;-63
2021/09/28 06:39:00;;;;;;;5.70;3.50;;;17.10;99.90;;;;;;5030884;28;20666;-64
2021/09/28 06:41:27;;;;;;;7.37;3.33;;;17.10;99.90;;;;;;5031307;28;20206;-64
2021/09/28 06:43:55;;;;;;;7.10;3.80;;;17.30;99.90;;;;;;5030572;28;20680;-64
2021/09/28 06:46:22;;;;;;;6.93;4.00;;;17.40;99.90;;;;;;5030778;28;20733;-64
2021/09/28 06:48:49;;;;;;;6.63;3.63;;;17.50;99.90;;;;;;5030424;28;20206;-64
2021/09/28 06:51:17;;;;;;;6.03;3.57;;;17.70;99.90;;;;;;5030716;28;20230;-64
2021/09/28 06:53:44;;;;;;;7.03;3.80;;;17.80;99.90;;;;;;5030698;28;20210;-64
2021/09/28 06:56:11;;;;;;;7.30;3.47;;;18.00;99.90;;;;;;5030971;28;20317;-63
2021/09/28 06:58:38;;;;;;;7.43;3.58;;;18.00;99.90;;;;;;5030663;28;20202;-64
2021/09/28 07:01:05;;;;;;;7.35;3.60;;;18.00;99.90;;;;;;5030474;28;20209;-64
2021/09/28 07:03:34;;;;;;;8.10;3.30;;;18.20;99.90;;;;;;5030157;28;20641;-64
2021/09/28 07:06:02;;;;;;;5.70;2.97;;;18.30;99.90;;;;;;5030511;28;20226;-64
2021/09/28 07:08:30;;;;;;;4.50;3.03;;;18.20;99.90;;;;;;5029908;28;20651;-64
2021/09/28 07:10:57;;;;;;;9.52;3.22;;;18.20;99.90;;;;;;5030109;28;20218;-64
2021/09/28 07:13:23;;;;;;;5.23;3.37;;;18.20;99.90;;;;;;5029002;28;20210;-64
2021/09/28 07:15:50;;;;;;;7.03;3.70;;;18.30;99.90;;;;;;4995115;28;1025580;-64
2021/09/28 07:18:17;;;;;;;5.57;3.20;;;18.30;99.90;;;;;;5030877;28;20701;-64
2021/09/28 07:20:45;;;;;;;6.30;3.00;;;18.20;99.90;;;;;;5031218;28;20210;-64
2021/09/28 07:23:12;;;;;;;5.07;3.38;;;18.30;99.90;;;;;;5031350;28;20590;-64
2021/09/28 07:25:40;;;;;;;7.72;3.10;;;18.30;99.90;;;;;;5031032;28;20236;-64
2021/09/28 07:28:08;;;;;;;7.82;3.10;;;18.50;99.90;;;;;;5030929;28;20205;-64
2021/09/28 07:30:35;;;;;;;8.60;2.90;;;18.60;99.90;;;;;;5030815;28;20222;-64
2021/09/28 07:33:02;;;;;;;4.75;2.78;;;18.40;99.90;;;;;;5030752;28;20666;-63
2021/09/28 07:35:30;;;;;;;6.70;3.42;;;18.30;99.90;;;;;;5030629;28;20304;-64
2021/09/28 07:37:57;;;;;;;5.00;3.10;;;18.20;99.90;;;;;;5030399;28;20212;-64
2021/09/28 07:40:23;;;;;;;7.90;3.13;;;17.90;99.90;;;;;;5030634;28;20209;-64
2021/09/28 07:42:52;;;;;;;6.75;2.95;;;17.50;99.90;;;;;;5030675;28;20217;-64
2021/09/28 07:45:18;;;;;;;8.23;2.97;;;17.40;99.90;;;;;;5030279;28;20229;-64
2021/09/28 07:47:45;;;;;;;7.50;3.00;;;17.50;99.90;;;;;;5030681;28;20202;-64
2021/09/28 07:50:13;;;;;;;5.13;3.25;;;17.50;99.90;;;;;;5030608;28;20210;-63
2021/09/28 07:52:40;;;;;;;7.45;3.00;;;17.30;99.90;;;;;;5030738;28;20649;-64
2021/09/28 07:55:07;;;;;;;4.93;3.63;;;17.10;99.90;;;;;;5030317;28;20733;-64
2021/09/28 07:57:34;;;;;;;5.18;3.15;;;17.00;99.90;;;;;;5030333;28;20202;-64
2021/09/28 08:00:02;;;;;;;5.55;3.00;;;16.80;99.90;;;;;;5030263;28;20218;-64
2021/09/28 08:02:30;;;;;;;7.90;3.33;;;16.90;99.90;;;;;;5030230;28;20210;-64
2021/09/28 08:04:57;;;;;;;5.37;3.37;;;17.00;99.90;;;;;;5030264;28;20226;-64
2021/09/28 08:07:23;;;;;;;7.77;3.60;;;16.90;99.90;;;;;;5030523;28;20210;-64
2021/09/28 08:09:50;;;;;;;7.73;3.70;;;17.00;99.90;;;;;;5030472;28;20279;-64
2021/09/28 08:12:17;;;;;;;4.40;3.00;;;17.10;99.90;;;;;;5030243;28;20226;-64
2021/09/28 08:14:43;;;;;;;6.80;3.17;;;17.40;99.90;;;;;;5030243;28;20239;-64
2021/09/28 08:17:12;;;;;;;5.25;2.90;;;17.60;99.90;;;;;;5030415;28;20202;-64
2021/09/28 08:19:40;;;;;;;3.38;2.50;;;17.90;99.90;;;;;;5030325;28;20241;-64
2021/09/28 08:22:09;;;;;;;4.70;2.42;;;17.90;99.90;;;;;;5030233;28;20574;-64
2021/09/28 08:24:40;;;;;;;4.90;2.70;;;17.80;99.90;;;;;;5030633;28;20226;-64
2021/09/28 08:29:51;;;;;;;6.30;2.60;;;17.50;99.90;;;;;;5030555;28;20197;-64
2021/09/28 08:32:20;;;;;;;6.63;3.00;;;17.50;99.90;;;;;;5031493;28;20233;-64
2021/09/28 08:34:47;;;;;;;4.65;2.85;;;17.70;99.90;;;;;;5033981;28;20265;-64
2021/09/28 08:37:14;;;;;;;6.32;3.05;;;17.80;99.90;;;;;;5034061;28;20238;-64
2021/09/28 08:39:41;;;;;;;5.25;2.78;;;17.90;99.90;;;;;;5034523;28;20249;-64
2021/09/28 08:42:08;;;;;;;5.97;3.17;;;17.90;99.90;;;;;;5034133;28;20554;-64
2021/09/28 08:44:35;;;;;;;6.35;3.05;;;17.80;99.90;;;;;;5034022;28;20234;-64
2021/09/28 08:47:02;;;;;;;6.57;3.92;;;17.60;99.90;;;;;;5034016;28;20210;-64
2021/09/28 08:49:30;;;;;;;6.25;3.58;;;17.60;99.90;;;;;;5033665;28;20255;-64
2021/09/28 08:51:57;;;;;;;6.77;4.30;;;17.50;99.90;;;;;;5033467;28;20575;-64
2021/09/28 08:54:24;;;;;;;7.37;4.30;;;17.60;99.90;;;;;;5033719;28;20268;-64
2021/09/28 08:56:50;;;;;;;5.43;3.58;;;17.70;99.90;;;;;;5033757;28;20219;-64
2021/09/28 08:59:18;;;;;;;6.93;4.45;;;18.10;99.90;;;;;;5033281;28;20202;-64
2021/09/28 09:01:56;;;;;;;9.35;5.32;;;18.50;99.90;;;;;;5033472;28;20206;-64
2021/09/28 09:04:23;;;;;;;5.60;4.30;;;18.60;99.90;;;;;;5033124;28;20691;-64
2021/09/28 09:06:52;;;;;;;10.38;5.22;;;18.70;99.90;;;;;;5033296;28;20623;-64
2021/09/28 09:09:18;;;;;;;9.70;4.40;;;18.60;99.90;;;;;;5033083;28;20203;-64
2021/09/28 09:11:47;;;;;;;8.53;4.93;;;18.60;99.90;;;;;;5033322;28;20233;-64
2021/09/28 09:14:17;;;;;;;8.80;5.93;;;18.80;99.90;;;;;;5032936;28;20260;-63
2021/09/28 09:16:44;;;;;;;7.65;5.07;;;18.70;99.90;;;;;;5033211;28;20568;-62
2021/09/28 09:19:13;;;;;;;8.38;5.15;;;18.70;99.90;;;;;;5032591;28;20206;-61
2021/09/28 09:21:48;;;;;;;8.30;4.70;;;18.80;99.90;;;;;;5032920;28;20209;-62
2021/09/28 09:24:41;;;;;;;8.98;5.68;;;18.90;99.90;;;;;;5032909;28;20210;-61
2021/09/28 09:27:09;;;;;;;6.93;5.20;;;18.50;99.90;;;;;;5032987;28;20297;-62
2021/09/28 09:29:36;;;;;;;8.15;5.32;;;18.40;99.90;;;;;;5033017;28;20213;-61
2021/09/28 09:32:03;;;;;;;7.57;5.23;;;18.50;99.90;;;;;;5032881;28;20284;-61
2021/09/28 09:34:29;;;;;;;7.97;4.80;;;18.60;99.90;;;;;;5032491;28;20226;-62
2021/09/28 09:36:59;;;;;;;7.03;5.07;;;18.60;99.90;;;;;;5032659;28;20206;-61
2021/09/28 09:39:28;;;;;;;11.23;5.57;;;18.70;99.90;;;;;;5032645;28;20206;-61
2021/09/28 09:42:07;;;;;;;11.35;6.50;;;18.80;99.90;;;;;;5033013;28;20357;-62
2021/09/28 09:44:35;;;;;;;8.27;5.35;;;18.80;99.90;;;;;;5031594;28;20229;-62
2021/09/28 09:47:02;;;;;;;7.53;5.45;;;19.10;99.90;;;;;;5032001;28;20250;-62
2021/09/28 09:49:33;;;;;;;6.97;5.53;;;19.30;99.90;;;;;;5031965;28;20210;-61
2021/09/28 09:52:09;;;;;;;10.23;6.20;;;19.40;99.90;;;;;;5032070;28;20268;-62
2021/09/28 09:54:37;;;;;;;8.25;4.95;;;19.70;99.90;;;;;;5032072;28;20230;-61
2021/09/28 09:57:07;;;;;;;5.90;4.35;;;20.20;99.90;;;;;;5032134;28;20210;-62
2021/09/28 09:59:35;;;;;;;7.18;5.53;;;20.40;99.90;;;;;;5032374;28;20217;-62
2021/09/28 10:02:03;;;;;;;9.20;4.88;;;20.70;99.90;;;;;;5032595;28;20249;-62
2021/09/28 10:04:30;;;;;;;7.28;4.85;;;20.90;99.90;;;;;;5031902;28;20245;-62
2021/09/28 10:07:01;;;;;;;7.82;4.57;;;20.90;99.90;;;;;;5031925;28;20215;-62
2021/09/28 10:09:29;;;;;;;12.13;6.35;;;21.10;99.90;;;;;;5031837;28;20614;-62
2021/09/28 10:11:58;;;;;;;8.05;5.32;;;21.50;99.90;;;;;;5031954;28;20241;-62
2021/09/28 10:14:30;;;;;;;9.07;4.18;;;21.90;99.90;;;;;;5059667;22;20230;-61
2021/09/28 10:16:59;;;;;;;6.13;4.28;;;22.10;99.90;;;;;;5072631;28;20320;-62
2021/09/28 10:19:48;;;;;;;5.35;4.00;;;22.20;99.90;;;;;;5072333;28;20211;-62
2021/09/28 10:22:50;;;;;;;8.05;4.00;;;22.40;99.90;;;;;;5072541;28;20280;-61
2021/09/28 10:25:35;;;;;;;9.32;4.60;;;22.60;99.90;;;;;;5071793;28;20722;-61
2021/09/28 10:28:29;;;;;;;7.63;4.07;;;22.90;99.90;;;;;;5072651;28;20213;-61
2021/09/28 10:30:58;;;;;;;7.68;4.05;;;23.00;99.90;;;;;;5072537;28;20201;-62
2021/09/28 10:33:34;;;;;;;9.00;5.15;;;22.70;99.90;;;;;;5072865;28;20259;-62
2021/09/28 10:36:05;;;;;;;6.75;4.88;;;22.60;99.90;;;;;;5072321;28;20297;-58
2021/09/28 10:38:46;;;;;;;8.35;5.07;;;22.60;99.90;;;;;;5072677;28;20330;-61
2021/09/28 10:41:38;;;;;;;7.80;4.95;;;22.30;99.90;;;;;;5072285;28;20204;-61
2021/09/28 10:44:47;;;;;;;7.28;5.25;;;21.80;99.90;;;;;;5071812;28;20605;-59
2021/09/28 10:47:50;;;;;;;8.55;4.88;;;21.30;99.90;;;;;;5072164;28;20209;-60
2021/09/28 10:50:19;;;;;;;8.05;5.13;;;20.90;99.90;;;;;;5072008;28;20247;-59
2021/09/28 10:52:46;;;;;;;7.78;5.90;;;20.80;99.90;;;;;;5071353;28;20229;-60
2021/09/28 10:55:40;;;;;;;7.00;5.28;;;20.50;99.90;;;;;;5070928;28;20221;-60
2021/09/28 10:58:14;;;;;;;6.05;5.25;;;20.50;99.90;;;;;;5070883;28;20676;-60
2021/09/28 11:01:08;;;;;;;6.57;5.10;;;20.40;99.90;;;;;;5071640;28;20204;-59
2021/09/28 11:03:51;;;;;;;9.43;5.40;;;19.90;99.90;;;;;;5071345;28;20611;-60
2021/09/28 11:06:22;;;;;;;7.15;5.63;;;19.60;99.90;;;;;;5071437;28;20239;-61
2021/09/28 11:08:54;;;;;;;10.27;5.75;;;19.80;99.90;;;;;;5071223;28;20211;-60
2021/09/28 11:11:23;;;;;;;12.57;6.63;;;20.00;99.90;;;;;;5071092;28;20212;-61
2021/09/28 11:13:50;;;;;;;9.43;5.40;;;20.20;99.90;;;;;;5071294;28;20228;-61
2021/09/28 11:16:21;;;;;;;7.93;5.20;;;20.40;99.90;;;;;;5070999;28;20260;-60
2021/09/28 11:18:58;;;;;;;6.70;4.05;;;20.60;99.90;;;;;;5071070;28;20281;-61
2021/09/28 11:21:25;;;;;;;6.68;3.88;;;20.70;99.90;;;;;;5071229;28;20201;-60
2021/09/28 11:23:55;;;;;;;5.22;3.42;;;20.90;99.90;;;;;;5071056;28;20212;-61
2021/09/28 11:26:31;;;;;;;7.68;4.40;;;21.10;99.90;;;;;;5071730;28;20232;-61
2021/09/28 11:28:59;;;;;;;7.70;3.60;;;21.40;99.90;;;;;;5071024;28;20208;-61
2021/09/28 11:31:32;;;;;;;5.20;3.75;;;21.40;99.90;;;;;;5070774;28;20201;-62
2021/09/28 11:34:00;;;;;;;6.70;3.28;;;21.30;99.90;;;;;;5070742;28;20236;-64
2021/09/28 11:36:32;;;;;;;5.43;3.55;;;21.30;99.90;;;;;;5070847;28;20255;-62
2021/09/28 11:38:59;;;;;;;7.13;3.20;;;21.40;99.90;;;;;;5071418;28;20561;-62
2021/09/28 11:41:26;;;;;;;7.63;3.58;;;21.50;99.90;;;;;;5071269;28;20609;-61
2021/09/28 11:43:55;;;;;;;5.45;3.08;;;21.40;99.90;;;;;;5071433;28;20307;-62
2021/09/28 11:46:24;;;;;;;4.28;2.70;;;21.20;99.90;;;;;;5071506;28;20685;-59
2021/09/28 11:48:56;;;;;;;4.55;3.00;;;20.90;99.90;;;;;;5071425;28;20204;-61
2021/09/28 11:51:26;;;;;;;4.25;2.67;;;20.70;99.90;;;;;;5071451;28;20561;-62
2021/09/28 11:53:55;;;;;;;4.45;3.30;;;20.30;99.90;;;;;;5071249;28;20201;-62
2021/09/28 11:56:24;;;;;;;7.30;3.28;;;20.20;99.90;;;;;;5071348;28;20326;-61
2021/09/28 11:58:53;;;;;;;5.78;3.90;;;20.10;99.90;;;;;;5071181;28;20213;-62
2021/09/28 12:01:21;;;;;;;4.47;3.00;;;20.10;99.90;;;;;;5071266;28;20213;-62
2021/09/28 12:04:15;;;;;;;3.20;2.28;;;20.10;99.90;;;;;;5070809;28;20204;-62
2021/09/28 12:07:02;;;;;;;6.03;2.30;;;20.10;99.90;;;;;;5071292;28;20209;-62
2021/09/28 12:09:51;;;;;;;3.50;2.50;;;20.10;99.90;;;;;;5075107;28;20213;-66
2021/09/28 12:12:21;;;;;;;6.00;2.65;;;20.30;99.90;;;;;;5074734;28;20235;-62
2021/09/28 12:14:50;;;;;;;9.65;5.60;;;20.40;99.90;;;;;;5074659;28;20236;-60
2021/09/28 12:17:19;;;;;;;5.97;2.13;;;20.60;99.90;;;;;;5074935;28;20212;-62
2021/09/28 12:19:48;;;;;;;8.15;3.10;;;20.70;99.90;;;;;;5074520;28;20672;-62
2021/09/28 12:22:27;;;;;;;4.72;2.45;;;20.90;99.90;;;;;;5075171;28;20656;-60
2021/09/28 12:24:54;;;;;;;7.07;2.42;;;21.10;99.40;;;;;;5074849;28;20225;-62
2021/09/28 12:27:22;;;;;;;4.55;2.22;;;21.20;99.00;;;;;;5075114;28;20211;-62
2021/09/28 12:29:50;;;;;;;6.03;2.10;;;21.50;98.40;;;;;;5074741;28;20204;-61
2021/09/28 12:32:22;;;;;;;4.63;2.10;;;21.70;98.50;;;;;;5074544;28;20315;-62
2021/09/28 12:34:54;;;;;;;4.95;2.20;;;21.90;98.40;;;;;;5074380;28;20225;-60
2021/09/28 12:37:22;;;;;;;5.90;2.20;;;22.20;97.80;;;;;;5075010;28;20209;-70
2021/09/28 12:40:05;;;;;;;5.57;1.90;;;22.50;97.70;;;;;;5074384;28;20205;-61
2021/09/28 12:42:32;;;;;;;4.95;2.40;;;22.70;97.20;;;;;;5074308;28;20197;-61
2021/09/28 12:45:01;;;;;;;4.45;1.83;;;22.90;96.80;;;;;;5073772;28;20274;-61
2021/09/28 12:47:37;;;;;;;3.72;1.67;;;23.10;96.30;;;;;;5074284;28;20208;-62
2021/09/28 12:50:22;;;;;;;2.90;1.40;;;23.40;96.10;;;;;;5073820;28;20328;-61
2021/09/28 12:52:52;;;;;;;3.75;1.58;;;23.50;94.90;;;;;;5073943;28;20262;-61
2021/09/28 12:55:19;;;;;;;3.25;1.80;;;23.50;94.90;;;;;;5073817;28;20256;-61
2021/09/28 12:57:46;;;;;;;4.88;1.73;;;23.50;94.70;;;;;;5073677;28;20595;-61
2021/09/28 13:00:13;;;;;;;2.85;1.60;;;23.70;94.10;;;;;;5073952;28;20205;-62